GRB weather

Austin Straubel International Airport
Green Bay, Wisconsin, United States

Public forecast

Using degrees Fahrenheit for public forecast. Weather courtesy of forecast.io.

METAR (pilot weather report)

Retrieved 2019/03/26 21:53 UTC (26 minutes ago):

KGRB 262153Z 20007KT 10SM CLR 08/M06 A3035 RMK AO2 SLP286 T00831061

TAF (pilot weather forecast)

Retrieved 2019/03/26 18:33 UTC (4 hours ago):

TAF KGRB 261731Z 2618/2718 19006KT P6SM BKN250 FM270900 19005KT P6SM SCT060 BKN120 WS012/23030KT FM271200 20009G17KT P6SM BKN050 WS012/22035KT FM271500 20012G21KT P6SM BKN060 FM271700 20014G24KT P6SM BKN080